sensor_id;sensor_type;location;lat;lon;timestamp;temperature;humidity
54846;DHT22;53889;50.084;8.646;2022-09-09T00:02:19;17.90;99.90
54846;DHT22;53889;50.084;8.646;2022-09-09T00:04:54;17.80;99.90
54846;DHT22;53889;50.084;8.646;2022-09-09T00:07:37;17.70;99.90
54846;DHT22;53889;50.084;8.646;2022-09-09T00:10:16;17.70;99.90
54846;DHT22;53889;50.084;8.646;2022-09-09T00:12:51;17.70;99.90
54846;DHT22;53889;50.084;8.646;2022-09-09T00:15:22;17.70;99.90
54846;DHT22;53889;50.084;8.646;2022-09-09T00:17:53;17.70;99.90
54846;DHT22;53889;50.084;8.646;2022-09-09T00:20:28;17.80;99.90
54846;DHT22;53889;50.084;8.646;2022-09-09T00:23:00;17.90;99.90
54846;DHT22;53889;50.084;8.646;2022-09-09T00:25:36;17.80;99.90
54846;DHT22;53889;50.084;8.646;2022-09-09T00:28:13;17.80;99.90
54846;DHT22;53889;50.084;8.646;2022-09-09T00:30:41;17.60;99.90
54846;DHT22;53889;50.084;8.646;2022-09-09T00:33:11;17.60;99.90
54846;DHT22;53889;50.084;8.646;2022-09-09T00:35:44;17.70;99.90
54846;DHT22;53889;50.084;8.646;2022-09-09T00:38:15;17.70;99.90
54846;DHT22;53889;50.084;8.646;2022-09-09T00:40:49;17.70;99.90
54846;DHT22;53889;50.084;8.646;2022-09-09T00:43:25;17.60;99.90
54846;DHT22;53889;50.084;8.646;2022-09-09T00:46:14;17.60;99.90
54846;DHT22;53889;50.084;8.646;2022-09-09T00:48:51;17.60;99.90
54846;DHT22;53889;50.084;8.646;2022-09-09T00:51:28;17.60;99.90
54846;DHT22;53889;50.084;8.646;2022-09-09T00:54:12;17.50;99.90
54846;DHT22;53889;50.084;8.646;2022-09-09T00:56:47;17.50;99.90
54846;DHT22;53889;50.084;8.646;2022-09-09T00:59:25;17.40;99.90
54846;DHT22;53889;50.084;8.646;2022-09-09T01:01:54;17.30;99.90
54846;DHT22;53889;50.084;8.646;2022-09-09T01:04:26;17.30;99.90
54846;DHT22;53889;50.084;8.646;2022-09-09T01:07:03;17.80;99.90
54846;DHT22;53889;50.084;8.646;2022-09-09T01:09:44;17.20;99.90
54846;DHT22;53889;50.084;8.646;2022-09-09T01:12:15;17.20;99.90
54846;DHT22;53889;50.084;8.646;2022-09-09T01:14:48;17.10;99.90
54846;DHT22;53889;50.084;8.646;2022-09-09T01:17:20;17.10;99.90
54846;DHT22;53889;50.084;8.646;2022-09-09T01:20:03;17.00;99.90
54846;DHT22;53889;50.084;8.646;2022-09-09T01:22:44;16.90;99.90
54846;DHT22;53889;50.084;8.646;2022-09-09T01:25:29;17.00;99.90
54846;DHT22;53889;50.084;8.646;2022-09-09T01:28:16;15.60;99.90
54846;DHT22;53889;50.084;8.646;2022-09-09T01:30:44;16.90;99.90
54846;DHT22;53889;50.084;8.646;2022-09-09T01:33:16;16.80;99.90
54846;DHT22;53889;50.084;8.646;2022-09-09T01:35:46;16.90;99.90
54846;DHT22;53889;50.084;8.646;2022-09-09T01:38:17;17.00;99.90
54846;DHT22;53889;50.084;8.646;2022-09-09T01:40:45;16.90;99.90
54846;DHT22;53889;50.084;8.646;2022-09-09T01:43:13;16.70;99.90
54846;DHT22;53889;50.084;8.646;2022-09-09T01:45:41;16.80;99.90
54846;DHT22;53889;50.084;8.646;2022-09-09T01:48:09;16.90;99.90
54846;DHT22;53889;50.084;8.646;2022-09-09T01:50:42;16.80;99.90
54846;DHT22;53889;50.084;8.646;2022-09-09T01:53:11;16.90;99.90
54846;DHT22;53889;50.084;8.646;2022-09-09T01:55:39;16.80;99.90
54846;DHT22;53889;50.084;8.646;2022-09-09T01:58:25;16.80;99.90
54846;DHT22;53889;50.084;8.646;2022-09-09T02:01:04;16.80;99.90
54846;DHT22;53889;50.084;8.646;2022-09-09T02:03:33;16.80;99.90
54846;DHT22;53889;50.084;8.646;2022-09-09T02:06:17;16.80;99.90
54846;DHT22;53889;50.084;8.646;2022-09-09T02:08:57;16.80;99.90
54846;DHT22;53889;50.084;8.646;2022-09-09T02:11:27;16.80;99.90
54846;DHT22;53889;50.084;8.646;2022-09-09T02:14:10;16.80;99.90
54846;DHT22;53889;50.084;8.646;2022-09-09T02:16:44;16.70;99.90
54846;DHT22;53889;50.084;8.646;2022-09-09T02:19:16;16.60;99.90
54846;DHT22;53889;50.084;8.646;2022-09-09T02:22:07;16.70;99.90
54846;DHT22;53889;50.084;8.646;2022-09-09T02:24:36;16.60;99.90
54846;DHT22;53889;50.084;8.646;2022-09-09T02:27:20;16.70;99.90
54846;DHT22;53889;50.084;8.646;2022-09-09T02:29:51;17.20;99.90
54846;DHT22;53889;50.084;8.646;2022-09-09T02:32:31;16.70;99.90
54846;DHT22;53889;50.084;8.646;2022-09-09T02:35:02;16.70;99.90
54846;DHT22;53889;50.084;8.646;2022-09-09T02:37:33;16.60;99.90
54846;DHT22;53889;50.084;8.646;2022-09-09T02:40:02;16.60;99.90
54846;DHT22;53889;50.084;8.646;2022-09-09T02:42:31;16.60;99.90
54846;DHT22;53889;50.084;8.646;2022-09-09T02:45:01;16.70;99.90
54846;DHT22;53889;50.084;8.646;2022-09-09T02:47:33;16.60;99.90
54846;DHT22;53889;50.084;8.646;2022-09-09T02:50:12;16.70;99.90
54846;DHT22;53889;50.084;8.646;2022-09-09T02:52:48;16.80;99.90
54846;DHT22;53889;50.084;8.646;2022-09-09T02:55:23;16.80;99.90
54846;DHT22;53889;50.084;8.646;2022-09-09T02:57:52;16.70;99.90
54846;DHT22;53889;50.084;8.646;2022-09-09T03:00:26;16.70;99.90
54846;DHT22;53889;50.084;8.646;2022-09-09T03:02:58;16.40;99.90
54846;DHT22;53889;50.084;8.646;2022-09-09T03:05:25;16.80;99.90
54846;DHT22;53889;50.084;8.646;2022-09-09T03:07:52;16.80;99.90
54846;DHT22;53889;50.084;8.646;2022-09-09T03:10:20;16.90;99.90
54846;DHT22;53889;50.084;8.646;2022-09-09T03:12:47;16.80;99.90
54846;DHT22;53889;50.084;8.646;2022-09-09T03:15:15;16.90;99.90
54846;DHT22;53889;50.084;8.646;2022-09-09T03:17:43;16.90;99.90
54846;DHT22;53889;50.084;8.646;2022-09-09T03:20:10;16.90;99.90
54846;DHT22;53889;50.084;8.646;2022-09-09T03:22:37;16.80;99.90
54846;DHT22;53889;50.084;8.646;2022-09-09T03:25:05;16.80;99.90
54846;DHT22;53889;50.084;8.646;2022-09-09T03:27:33;16.80;99.90
54846;DHT22;53889;50.084;8.646;2022-09-09T03:30:03;16.80;99.90
54846;DHT22;53889;50.084;8.646;2022-09-09T03:32:30;16.80;99.90
54846;DHT22;53889;50.084;8.646;2022-09-09T03:34:58;16.70;99.90
54846;DHT22;53889;50.084;8.646;2022-09-09T03:37:25;16.80;99.90
54846;DHT22;53889;50.084;8.646;2022-09-09T03:39:52;16.70;99.90
54846;DHT22;53889;50.084;8.646;2022-09-09T03:42:21;16.70;99.90
54846;DHT22;53889;50.084;8.646;2022-09-09T03:44:51;16.60;99.90
54846;DHT22;53889;50.084;8.646;2022-09-09T03:47:21;16.60;99.90
54846;DHT22;53889;50.084;8.646;2022-09-09T03:49:50;16.60;99.90
54846;DHT22;53889;50.084;8.646;2022-09-09T03:52:18;16.50;99.90
54846;DHT22;53889;50.084;8.646;2022-09-09T03:54:47;17.30;99.90
54846;DHT22;53889;50.084;8.646;2022-09-09T03:57:14;16.50;99.90
54846;DHT22;53889;50.084;8.646;2022-09-09T03:59:42;16.40;99.90
54846;DHT22;53889;50.084;8.646;2022-09-09T04:02:09;16.50;99.90
54846;DHT22;53889;50.084;8.646;2022-09-09T04:04:36;16.40;99.90
54846;DHT22;53889;50.084;8.646;2022-09-09T04:07:03;16.40;99.90
54846;DHT22;53889;50.084;8.646;2022-09-09T04:09:33;16.40;99.90
54846;DHT22;53889;50.084;8.646;2022-09-09T04:12:00;16.40;99.90
54846;DHT22;53889;50.084;8.646;2022-09-09T04:14:29;16.40;99.90
54846;DHT22;53889;50.084;8.646;2022-09-09T04:16:57;16.30;99.90
54846;DHT22;53889;50.084;8.646;2022-09-09T04:19:25;16.40;99.90
54846;DHT22;53889;50.084;8.646;2022-09-09T04:21:52;16.40;99.90
54846;DHT22;53889;50.084;8.646;2022-09-09T04:24:21;16.40;99.90
54846;DHT22;53889;50.084;8.646;2022-09-09T04:26:49;16.40;99.90
54846;DHT22;53889;50.084;8.646;2022-09-09T04:29:16;16.40;99.90
54846;DHT22;53889;50.084;8.646;2022-09-09T04:31:43;16.40;99.90
54846;DHT22;53889;50.084;8.646;2022-09-09T04:34:10;16.40;99.90
54846;DHT22;53889;50.084;8.646;2022-09-09T04:36:37;16.40;99.90
54846;DHT22;53889;50.084;8.646;2022-09-09T04:39:05;17.60;99.90
54846;DHT22;53889;50.084;8.646;2022-09-09T04:41:32;16.40;99.90
54846;DHT22;53889;50.084;8.646;2022-09-09T04:44:00;16.40;99.90
54846;DHT22;53889;50.084;8.646;2022-09-09T04:46:28;16.40;99.90
54846;DHT22;53889;50.084;8.646;2022-09-09T04:48:56;16.40;99.90
54846;DHT22;53889;50.084;8.646;2022-09-09T04:51:27;16.40;99.90
54846;DHT22;53889;50.084;8.646;2022-09-09T04:53:53;16.50;99.90
54846;DHT22;53889;50.084;8.646;2022-09-09T04:56:20;16.60;99.90
54846;DHT22;53889;50.084;8.646;2022-09-09T04:58:53;16.60;99.90
54846;DHT22;53889;50.084;8.646;2022-09-09T05:01:24;16.50;99.90
54846;DHT22;53889;50.084;8.646;2022-09-09T05:03:57;16.60;99.90
54846;DHT22;53889;50.084;8.646;2022-09-09T05:06:24;16.50;99.90
54846;DHT22;53889;50.084;8.646;2022-09-09T05:08:57;16.60;99.90
54846;DHT22;53889;50.084;8.646;2022-09-09T05:11:28;16.50;99.90
54846;DHT22;53889;50.084;8.646;2022-09-09T05:14:07;16.50;99.90
54846;DHT22;53889;50.084;8.646;2022-09-09T05:16:38;16.50;99.90
54846;DHT22;53889;50.084;8.646;2022-09-09T05:19:05;16.50;99.90
54846;DHT22;53889;50.084;8.646;2022-09-09T05:21:42;16.50;99.90
54846;DHT22;53889;50.084;8.646;2022-09-09T05:24:09;16.60;99.90
54846;DHT22;53889;50.084;8.646;2022-09-09T05:26:36;16.50;99.90
54846;DHT22;53889;50.084;8.646;2022-09-09T05:29:03;16.60;99.90
54846;DHT22;53889;50.084;8.646;2022-09-09T05:31:30;16.50;99.90
54846;DHT22;53889;50.084;8.646;2022-09-09T05:34:03;16.60;99.90
54846;DHT22;53889;50.084;8.646;2022-09-09T05:36:29;16.60;99.90
54846;DHT22;53889;50.084;8.646;2022-09-09T05:38:56;16.60;99.90
54846;DHT22;53889;50.084;8.646;2022-09-09T05:41:25;16.60;99.90
54846;DHT22;53889;50.084;8.646;2022-09-09T05:43:56;16.60;99.90
54846;DHT22;53889;50.084;8.646;2022-09-09T05:46:25;16.60;99.90
54846;DHT22;53889;50.084;8.646;2022-09-09T05:48:53;16.60;99.90
54846;DHT22;53889;50.084;8.646;2022-09-09T05:51:28;16.60;99.90
54846;DHT22;53889;50.084;8.646;2022-09-09T05:53:58;16.60;99.90
54846;DHT22;53889;50.084;8.646;2022-09-09T05:56:27;16.60;99.90
54846;DHT22;53889;50.084;8.646;2022-09-09T05:58:56;16.60;99.90
54846;DHT22;53889;50.084;8.646;2022-09-09T06:01:24;16.70;99.90
54846;DHT22;53889;50.084;8.646;2022-09-09T06:03:52;16.70;99.90
54846;DHT22;53889;50.084;8.646;2022-09-09T06:06:24;16.70;99.90
54846;DHT22;53889;50.084;8.646;2022-09-09T06:08:55;16.70;99.90
54846;DHT22;53889;50.084;8.646;2022-09-09T06:11:26;16.70;99.90
54846;DHT22;53889;50.084;8.646;2022-09-09T06:13:53;16.80;99.90
54846;DHT22;53889;50.084;8.646;2022-09-09T06:16:22;16.80;99.90
54846;DHT22;53889;50.084;8.646;2022-09-09T06:18:50;17.30;99.90
54846;DHT22;53889;50.084;8.646;2022-09-09T06:21:19;17.30;99.90
54846;DHT22;53889;50.084;8.646;2022-09-09T06:23:47;18.00;99.90
54846;DHT22;53889;50.084;8.646;2022-09-09T06:26:17;18.80;99.90
54846;DHT22;53889;50.084;8.646;2022-09-09T06:28:45;19.70;99.90
54846;DHT22;53889;50.084;8.646;2022-09-09T06:31:14;20.00;99.90
54846;DHT22;53889;50.084;8.646;2022-09-09T06:33:43;19.80;99.90
54846;DHT22;53889;50.084;8.646;2022-09-09T06:36:13;19.20;99.90
54846;DHT22;53889;50.084;8.646;2022-09-09T06:38:40;18.80;99.90
54846;DHT22;53889;50.084;8.646;2022-09-09T06:41:08;18.80;99.90
54846;DHT22;53889;50.084;8.646;2022-09-09T06:43:38;18.60;99.90
54846;DHT22;53889;50.084;8.646;2022-09-09T06:46:07;18.50;99.90
54846;DHT22;53889;50.084;8.646;2022-09-09T06:48:35;18.50;99.90
54846;DHT22;53889;50.084;8.646;2022-09-09T06:51:03;18.50;99.90
54846;DHT22;53889;50.084;8.646;2022-09-09T06:53:31;18.50;99.90
54846;DHT22;53889;50.084;8.646;2022-09-09T06:55:59;18.60;99.90
54846;DHT22;53889;50.084;8.646;2022-09-09T06:58:26;18.50;99.90
54846;DHT22;53889;50.084;8.646;2022-09-09T07:01:03;18.50;99.90
54846;DHT22;53889;50.084;8.646;2022-09-09T07:03:30;18.60;99.90
54846;DHT22;53889;50.084;8.646;2022-09-09T07:05:57;18.90;99.90
54846;DHT22;53889;50.084;8.646;2022-09-09T07:08:26;18.90;99.90
54846;DHT22;53889;50.084;8.646;2022-09-09T07:10:54;19.00;99.90
54846;DHT22;53889;50.084;8.646;2022-09-09T07:13:23;18.80;99.90
54846;DHT22;53889;50.084;8.646;2022-09-09T07:15:51;18.90;99.90
54846;DHT22;53889;50.084;8.646;2022-09-09T07:18:19;18.80;99.90
54846;DHT22;53889;50.084;8.646;2022-09-09T07:20:53;18.70;99.90
54846;DHT22;53889;50.084;8.646;2022-09-09T07:23:19;18.60;99.90
54846;DHT22;53889;50.084;8.646;2022-09-09T07:25:46;18.30;99.90
54846;DHT22;53889;50.084;8.646;2022-09-09T07:28:15;18.20;99.90
54846;DHT22;53889;50.084;8.646;2022-09-09T07:30:42;18.20;99.90
54846;DHT22;53889;50.084;8.646;2022-09-09T07:33:09;18.00;99.90
54846;DHT22;53889;50.084;8.646;2022-09-09T07:35:37;18.10;99.90
54846;DHT22;53889;50.084;8.646;2022-09-09T07:38:04;18.10;99.90
54846;DHT22;53889;50.084;8.646;2022-09-09T07:43:07;18.30;99.90
54846;DHT22;53889;50.084;8.646;2022-09-09T07:45:34;18.30;99.90
54846;DHT22;53889;50.084;8.646;2022-09-09T07:48:01;18.30;99.90
54846;DHT22;53889;50.084;8.646;2022-09-09T07:50:29;18.30;99.90
54846;DHT22;53889;50.084;8.646;2022-09-09T07:52:58;18.40;99.90
54846;DHT22;53889;50.084;8.646;2022-09-09T07:55:25;18.40;99.90
54846;DHT22;53889;50.084;8.646;2022-09-09T07:57:53;18.40;99.90
54846;DHT22;53889;50.084;8.646;2022-09-09T08:00:19;18.40;99.90
54846;DHT22;53889;50.084;8.646;2022-09-09T08:02:52;18.40;99.90
54846;DHT22;53889;50.084;8.646;2022-09-09T08:05:19;18.50;99.90
54846;DHT22;53889;50.084;8.646;2022-09-09T08:07:48;18.60;99.90
54846;DHT22;53889;50.084;8.646;2022-09-09T08:10:16;18.60;99.90
54846;DHT22;53889;50.084;8.646;2022-09-09T08:12:46;18.60;99.90
54846;DHT22;53889;50.084;8.646;2022-09-09T08:15:12;18.60;99.90
54846;DHT22;53889;50.084;8.646;2022-09-09T08:17:40;18.70;99.90
54846;DHT22;53889;50.084;8.646;2022-09-09T08:20:08;18.90;99.90
54846;DHT22;53889;50.084;8.646;2022-09-09T08:22:34;19.20;99.90
54846;DHT22;53889;50.084;8.646;2022-09-09T08:25:04;19.30;99.90
54846;DHT22;53889;50.084;8.646;2022-09-09T08:27:33;19.30;99.90
54846;DHT22;53889;50.084;8.646;2022-09-09T08:30:00;19.20;99.90
54846;DHT22;53889;50.084;8.646;2022-09-09T08:32:29;19.10;99.90
54846;DHT22;53889;50.084;8.646;2022-09-09T08:34:55;19.20;99.90
54846;DHT22;53889;50.084;8.646;2022-09-09T08:37:23;19.20;99.90
54846;DHT22;53889;50.084;8.646;2022-09-09T08:39:50;19.30;99.90
54846;DHT22;53889;50.084;8.646;2022-09-09T08:42:26;19.40;99.90
54846;DHT22;53889;50.084;8.646;2022-09-09T08:45:09;19.60;99.90
54846;DHT22;53889;50.084;8.646;2022-09-09T08:47:45;19.60;99.90
54846;DHT22;53889;50.084;8.646;2022-09-09T08:50:19;19.50;99.90
54846;DHT22;53889;50.084;8.646;2022-09-09T08:52:55;19.60;99.90
54846;DHT22;53889;50.084;8.646;2022-09-09T08:55:28;19.50;99.90
54846;DHT22;53889;50.084;8.646;2022-09-09T08:57:59;19.40;99.90
54846;DHT22;53889;50.084;8.646;2022-09-09T09:00:35;19.40;99.90
54846;DHT22;53889;50.084;8.646;2022-09-09T09:03:15;19.50;99.90
54846;DHT22;53889;50.084;8.646;2022-09-09T09:05:59;19.40;99.90
54846;DHT22;53889;50.084;8.646;2022-09-09T09:08:30;19.40;99.90
54846;DHT22;53889;50.084;8.646;2022-09-09T09:11:00;19.40;99.90
54846;DHT22;53889;50.084;8.646;2022-09-09T09:13:35;19.80;99.90
54846;DHT22;53889;50.084;8.646;2022-09-09T09:16:16;19.60;99.90
54846;DHT22;53889;50.084;8.646;2022-09-09T09:18:44;19.70;99.90
54846;DHT22;53889;50.084;8.646;2022-09-09T09:21:15;19.70;99.90
54846;DHT22;53889;50.084;8.646;2022-09-09T09:23:48;19.70;99.90
54846;DHT22;53889;50.084;8.646;2022-09-09T09:26:17;19.60;99.90
54846;DHT22;53889;50.084;8.646;2022-09-09T09:28:45;19.20;99.90
54846;DHT22;53889;50.084;8.646;2022-09-09T09:31:18;19.20;99.90
54846;DHT22;53889;50.084;8.646;2022-09-09T09:33:48;19.10;99.90
54846;DHT22;53889;50.084;8.646;2022-09-09T09:36:17;19.10;99.90
54846;DHT22;53889;50.084;8.646;2022-09-09T09:38:54;19.00;99.90
54846;DHT22;53889;50.084;8.646;2022-09-09T09:41:33;19.00;99.90
54846;DHT22;53889;50.084;8.646;2022-09-09T09:44:02;18.90;99.90
54846;DHT22;53889;50.084;8.646;2022-09-09T09:46:32;18.70;99.90
54846;DHT22;53889;50.084;8.646;2022-09-09T09:49:09;18.70;99.90
54846;DHT22;53889;50.084;8.646;2022-09-09T09:51:37;18.70;99.90
54846;DHT22;53889;50.084;8.646;2022-09-09T09:54:14;18.50;99.90
54846;DHT22;53889;50.084;8.646;2022-09-09T09:56:45;18.30;99.90
54846;DHT22;53889;50.084;8.646;2022-09-09T09:59:24;18.40;99.90
54846;DHT22;53889;50.084;8.646;2022-09-09T10:02:14;18.40;99.90
54846;DHT22;53889;50.084;8.646;2022-09-09T10:04:41;18.70;99.90
54846;DHT22;53889;50.084;8.646;2022-09-09T10:07:12;18.70;99.90
54846;DHT22;53889;50.084;8.646;2022-09-09T10:09:40;18.70;99.90
54846;DHT22;53889;50.084;8.646;2022-09-09T10:12:14;18.60;99.90
54846;DHT22;53889;50.084;8.646;2022-09-09T10:14:51;18.70;99.90
54846;DHT22;53889;50.084;8.646;2022-09-09T10:17:29;19.70;99.90
54846;DHT22;53889;50.084;8.646;2022-09-09T10:20:18;21.20;99.90
54846;DHT22;53889;50.084;8.646;2022-09-09T10:22:51;22.20;99.90
54846;DHT22;53889;50.084;8.646;2022-09-09T10:25:27;22.30;99.90
54846;DHT22;53889;50.084;8.646;2022-09-09T10:31:04;21.20;99.90
54846;DHT22;53889;50.084;8.646;2022-09-09T10:33:44;21.00;99.90
54846;DHT22;53889;50.084;8.646;2022-09-09T10:36:16;21.00;99.90
54846;DHT22;53889;50.084;8.646;2022-09-09T10:38:46;21.20;99.90
54846;DHT22;53889;50.084;8.646;2022-09-09T10:41:18;21.20;99.90
54846;DHT22;53889;50.084;8.646;2022-09-09T10:46:52;21.10;99.90
54846;DHT22;53889;50.084;8.646;2022-09-09T10:49:37;21.00;99.90
54846;DHT22;53889;50.084;8.646;2022-09-09T10:52:15;21.00;99.90
54846;DHT22;53889;50.084;8.646;2022-09-09T10:54:53;20.70;99.90
54846;DHT22;53889;50.084;8.646;2022-09-09T10:57:28;20.60;99.90
54846;DHT22;53889;50.084;8.646;2022-09-09T10:59:58;20.40;99.90
54846;DHT22;53889;50.084;8.646;2022-09-09T11:02:31;20.20;99.90
54846;DHT22;53889;50.084;8.646;2022-09-09T11:05:03;20.00;99.90
54846;DHT22;53889;50.084;8.646;2022-09-09T11:07:35;20.00;99.90
54846;DHT22;53889;50.084;8.646;2022-09-09T11:10:11;20.20;99.90
54846;DHT22;53889;50.084;8.646;2022-09-09T11:12:39;20.50;99.90
54846;DHT22;53889;50.084;8.646;2022-09-09T11:15:17;20.80;99.90
54846;DHT22;53889;50.084;8.646;2022-09-09T11:17:48;21.50;99.90
54846;DHT22;53889;50.084;8.646;2022-09-09T11:20:17;22.10;99.90
54846;DHT22;53889;50.084;8.646;2022-09-09T11:22:48;23.50;99.90
54846;DHT22;53889;50.084;8.646;2022-09-09T11:25:19;23.70;99.90
54846;DHT22;53889;50.084;8.646;2022-09-09T11:27:57;23.80;99.90
54846;DHT22;53889;50.084;8.646;2022-09-09T11:30:36;23.10;99.70
54846;DHT22;53889;50.084;8.646;2022-09-09T11:33:26;21.50;99.90
54846;DHT22;53889;50.084;8.646;2022-09-09T11:36:13;22.00;99.90
54846;DHT22;53889;50.084;8.646;2022-09-09T11:38:45;22.90;99.90
54846;DHT22;53889;50.084;8.646;2022-09-09T11:41:14;22.90;99.90
54846;DHT22;53889;50.084;8.646;2022-09-09T11:43:43;23.70;96.00
54846;DHT22;53889;50.084;8.646;2022-09-09T11:46:11;24.10;96.20
54846;DHT22;53889;50.084;8.646;2022-09-09T11:48:41;24.50;96.50
54846;DHT22;53889;50.084;8.646;2022-09-09T11:51:11;24.70;94.50
54846;DHT22;53889;50.084;8.646;2022-09-09T11:53:49;24.30;94.40
54846;DHT22;53889;50.084;8.646;2022-09-09T11:56:25;23.40;93.10
54846;DHT22;53889;50.084;8.646;2022-09-09T11:58:58;22.30;94.80
54846;DHT22;53889;50.084;8.646;2022-09-09T12:01:40;22.20;95.00
54846;DHT22;53889;50.084;8.646;2022-09-09T12:04:17;21.80;96.10
54846;DHT22;53889;50.084;8.646;2022-09-09T12:06:48;21.60;97.70
54846;DHT22;53889;50.084;8.646;2022-09-09T12:09:22;21.70;98.20
54846;DHT22;53889;50.084;8.646;2022-09-09T12:11:50;21.90;96.40
54846;DHT22;53889;50.084;8.646;2022-09-09T12:14:22;21.60;97.00
54846;DHT22;53889;50.084;8.646;2022-09-09T12:16:49;21.50;97.00
54846;DHT22;53889;50.084;8.646;2022-09-09T12:19:19;21.50;97.10
54846;DHT22;53889;50.084;8.646;2022-09-09T12:21:54;21.00;96.90
54846;DHT22;53889;50.084;8.646;2022-09-09T12:24:30;21.60;97.90
54846;DHT22;53889;50.084;8.646;2022-09-09T12:27:03;21.50;97.30
54846;DHT22;53889;50.084;8.646;2022-09-09T12:29:40;21.70;97.30
54846;DHT22;53889;50.084;8.646;2022-09-09T12:32:10;21.80;95.90
54846;DHT22;53889;50.084;8.646;2022-09-09T12:34:39;21.80;95.20
54846;DHT22;53889;50.084;8.646;2022-09-09T12:37:15;21.60;97.00
54846;DHT22;53889;50.084;8.646;2022-09-09T12:39:47;21.50;96.00
54846;DHT22;53889;50.084;8.646;2022-09-09T12:42:17;21.40;96.10
54846;DHT22;53889;50.084;8.646;2022-09-09T12:44:54;21.40;96.70
54846;DHT22;53889;50.084;8.646;2022-09-09T12:47:23;21.20;99.30
54846;DHT22;53889;50.084;8.646;2022-09-09T12:49:51;20.00;99.90
54846;DHT22;53889;50.084;8.646;2022-09-09T12:52:24;19.30;99.90
54846;DHT22;53889;50.084;8.646;2022-09-09T12:54:53;18.90;99.90
54846;DHT22;53889;50.084;8.646;2022-09-09T12:57:21;18.60;99.90
54846;DHT22;53889;50.084;8.646;2022-09-09T12:59:51;18.40;99.90
54846;DHT22;53889;50.084;8.646;2022-09-09T13:02:21;18.30;99.90
54846;DHT22;53889;50.084;8.646;2022-09-09T13:04:48;18.40;99.90
54846;DHT22;53889;50.084;8.646;2022-09-09T13:07:16;18.60;99.90
54846;DHT22;53889;50.084;8.646;2022-09-09T13:09:45;18.80;99.90
54846;DHT22;53889;50.084;8.646;2022-09-09T13:12:15;18.80;99.90
54846;DHT22;53889;50.084;8.646;2022-09-09T13:14:44;18.80;99.90
54846;DHT22;53889;50.084;8.646;2022-09-09T13:17:19;19.00;99.90
54846;DHT22;53889;50.084;8.646;2022-09-09T13:19:47;18.90;99.90
54846;DHT22;53889;50.084;8.646;2022-09-09T13:22:21;18.80;99.90
54846;DHT22;53889;50.084;8.646;2022-09-09T13:24:59;18.70;99.90
54846;DHT22;53889;50.084;8.646;2022-09-09T13:27:30;18.50;99.90
54846;DHT22;53889;50.084;8.646;2022-09-09T13:29:56;18.40;99.90
54846;DHT22;53889;50.084;8.646;2022-09-09T13:32:25;18.50;99.90
54846;DHT22;53889;50.084;8.646;2022-09-09T13:34:53;18.60;99.90
54846;DHT22;53889;50.084;8.646;2022-09-09T13:37:23;18.70;99.90
54846;DHT22;53889;50.084;8.646;2022-09-09T13:39:54;18.80;99.90
54846;DHT22;53889;50.084;8.646;2022-09-09T13:42:24;18.90;99.90
54846;DHT22;53889;50.084;8.646;2022-09-09T13:44:52;19.10;99.90
54846;DHT22;53889;50.084;8.646;2022-09-09T13:47:20;19.30;99.90
54846;DHT22;53889;50.084;8.646;2022-09-09T13:49:48;19.40;99.90
54846;DHT22;53889;50.084;8.646;2022-09-09T13:52:16;19.60;99.90
54846;DHT22;53889;50.084;8.646;2022-09-09T13:54:47;19.60;99.90
54846;DHT22;53889;50.084;8.646;2022-09-09T13:57:17;19.80;99.90
54846;DHT22;53889;50.084;8.646;2022-09-09T13:59:44;19.70;99.90
54846;DHT22;53889;50.084;8.646;2022-09-09T14:02:11;19.60;99.90
54846;DHT22;53889;50.084;8.646;2022-09-09T14:04:38;20.80;99.90
54846;DHT22;53889;50.084;8.646;2022-09-09T14:07:09;19.80;99.90
54846;DHT22;53889;50.084;8.646;2022-09-09T14:09:37;19.70;99.90
54846;DHT22;53889;50.084;8.646;2022-09-09T14:12:04;19.60;99.90
54846;DHT22;53889;50.084;8.646;2022-09-09T14:14:32;19.60;99.90
54846;DHT22;53889;50.084;8.646;2022-09-09T14:16:59;19.50;99.90
54846;DHT22;53889;50.084;8.646;2022-09-09T14:19:26;19.40;99.90
54846;DHT22;53889;50.084;8.646;2022-09-09T14:21:52;19.50;99.90
54846;DHT22;53889;50.084;8.646;2022-09-09T14:24:19;19.40;99.90
54846;DHT22;53889;50.084;8.646;2022-09-09T14:26:46;19.50;99.90
54846;DHT22;53889;50.084;8.646;2022-09-09T14:29:13;19.50;99.90
54846;DHT22;53889;50.084;8.646;2022-09-09T14:31:41;19.50;99.90
54846;DHT22;53889;50.084;8.646;2022-09-09T14:34:08;19.50;99.90
54846;DHT22;53889;50.084;8.646;2022-09-09T14:36:36;19.50;99.90
54846;DHT22;53889;50.084;8.646;2022-09-09T14:39:03;19.60;99.90
54846;DHT22;53889;50.084;8.646;2022-09-09T14:41:30;19.70;99.90
54846;DHT22;53889;50.084;8.646;2022-09-09T14:43:57;19.70;99.90
54846;DHT22;53889;50.084;8.646;2022-09-09T14:46:25;19.80;99.90
54846;DHT22;53889;50.084;8.646;2022-09-09T14:48:54;19.80;99.90
54846;DHT22;53889;50.084;8.646;2022-09-09T14:51:22;19.80;99.90
54846;DHT22;53889;50.084;8.646;2022-09-09T14:53:51;19.90;99.90
54846;DHT22;53889;50.084;8.646;2022-09-09T14:56:20;19.90;99.90
54846;DHT22;53889;50.084;8.646;2022-09-09T14:58:48;20.00;99.90
54846;DHT22;53889;50.084;8.646;2022-09-09T15:01:18;20.00;99.90
54846;DHT22;53889;50.084;8.646;2022-09-09T15:03:49;20.00;99.90
54846;DHT22;53889;50.084;8.646;2022-09-09T15:06:19;20.00;99.90
54846;DHT22;53889;50.084;8.646;2022-09-09T15:08:46;20.00;99.90
54846;DHT22;53889;50.084;8.646;2022-09-09T15:11:14;19.90;99.90
54846;DHT22;53889;50.084;8.646;2022-09-09T15:13:42;19.80;99.90
54846;DHT22;53889;50.084;8.646;2022-09-09T15:16:10;19.70;99.90
54846;DHT22;53889;50.084;8.646;2022-09-09T15:18:37;19.60;99.90
54846;DHT22;53889;50.084;8.646;2022-09-09T15:21:08;19.50;99.90
54846;DHT22;53889;50.084;8.646;2022-09-09T15:23:37;19.50;99.90
54846;DHT22;53889;50.084;8.646;2022-09-09T15:26:04;19.50;99.90
54846;DHT22;53889;50.084;8.646;2022-09-09T15:28:32;19.50;99.90
54846;DHT22;53889;50.084;8.646;2022-09-09T15:31:06;19.60;99.90
54846;DHT22;53889;50.084;8.646;2022-09-09T15:33:33;19.70;99.90
54846;DHT22;53889;50.084;8.646;2022-09-09T15:36:12;19.80;99.90
54846;DHT22;53889;50.084;8.646;2022-09-09T15:38:41;19.90;99.90
54846;DHT22;53889;50.084;8.646;2022-09-09T15:41:09;19.90;99.90
54846;DHT22;53889;50.084;8.646;2022-09-09T15:43:36;20.00;99.90
54846;DHT22;53889;50.084;8.646;2022-09-09T15:46:21;20.10;99.90
54846;DHT22;53889;50.084;8.646;2022-09-09T15:48:50;20.30;99.90
54846;DHT22;53889;50.084;8.646;2022-09-09T15:51:17;20.40;99.90
54846;DHT22;53889;50.084;8.646;2022-09-09T15:53:45;20.50;99.90
54846;DHT22;53889;50.084;8.646;2022-09-09T15:56:12;20.40;99.90
54846;DHT22;53889;50.084;8.646;2022-09-09T15:58:39;20.40;99.90
54846;DHT22;53889;50.084;8.646;2022-09-09T16:01:06;20.50;99.90
54846;DHT22;53889;50.084;8.646;2022-09-09T16:03:34;20.40;99.90